TimeMST,TemperatureF,Dew PointF,Humidity,Sea Level PressureIn,VisibilityMPH,Wind Direction,Wind SpeedMPH,Gust SpeedMPH,PrecipitationIn,Events,Conditions,WindDirDegrees,DateUTC
12:48 AM,19.9,17.1,89,29.97,-9999.0,Calm,Calm,-,N/A,,Unknown,0,2013-02-22 07:48:00
1:48 AM,16.0,12.9,88,29.97,-9999.0,Calm,Calm,-,N/A,,Unknown,0,2013-02-22 08:48:00
2:48 AM,16.0,12.0,84,29.96,-9999.0,Calm,Calm,-,N/A,,Unknown,0,2013-02-22 09:48:00
3:48 AM,18.0,15.1,88,29.94,-9999.0,Calm,Calm,-,N/A,,Unknown,0,2013-02-22 10:48:00
4:48 AM,16.0,12.9,88,29.94,-9999.0,West,3.5,-,N/A,,Unknown,260,2013-02-22 11:48:00
5:48 AM,14.0,10.9,88,29.96,-9999.0,Calm,Calm,-,N/A,,Unknown,0,2013-02-22 12:48:00
6:48 AM,14.0,10.4,86,29.84,-9999.0,WNW,4.6,-,N/A,,Unknown,300,2013-02-22 13:48:00
7:48 AM,19.0,15.1,85,29.97,-9999.0,West,3.5,-,N/A,,Unknown,280,2013-02-22 14:48:00
8:48 AM,25.0,19.9,81,29.96,-9999.0,WNW,6.9,-,N/A,,Unknown,300,2013-02-22 15:48:00
9:48 AM,34.0,21.9,61,29.94,-9999.0,West,12.7,-,N/A,,Unknown,270,2013-02-22 16:48:00
10:48 AM,37.9,21.0,51,29.91,-9999.0,West,11.5,-,N/A,,Unknown,270,2013-02-22 17:48:00
11:48 AM,42.1,21.0,43,29.89,-9999.0,West,11.5,-,N/A,,Unknown,260,2013-02-22 18:48:00
12:48 PM,43.0,18.0,37,29.85,-9999.0,West,12.7,-,N/A,,Unknown,270,2013-02-22 19:48:00
1:48 PM,44.1,14.0,30,29.83,-9999.0,West,10.4,-,N/A,,Unknown,260,2013-02-22 20:48:00
2:48 PM,45.0,16.0,31,29.80,-9999.0,SSW,11.5,-,N/A,,Unknown,210,2013-02-22 21:48:00
3:48 PM,45.0,14.0,29,29.78,-9999.0,SW,9.2,-,N/A,,Unknown,230,2013-02-22 22:48:00
4:48 PM,43.0,14.0,31,29.77,-9999.0,SW,5.8,-,N/A,,Unknown,220,2013-02-22 23:48:00
5:48 PM,34.0,17.1,50,29.78,-9999.0,Calm,Calm,-,N/A,,Unknown,0,2013-02-23 00:48:00
6:48 PM,28.9,18.0,64,29.77,-9999.0,Calm,Calm,-,N/A,,Unknown,0,2013-02-23 01:48:00
7:48 PM,33.1,19.0,56,29.74,-9999.0,Calm,Calm,-,N/A,,Unknown,0,2013-02-23 02:48:00
8:48 PM,30.0,19.9,66,29.72,-9999.0,Calm,Calm,-,N/A,,Unknown,0,2013-02-23 03:48:00
9:48 PM,32.0,19.0,59,29.68,-9999.0,SSW,11.5,-,N/A,,Unknown,200,2013-02-23 04:48:00
10:48 PM,32.0,18.0,56,29.65,-9999.0,SSW,10.4,-,N/A,,Unknown,200,2013-02-23 05:48:00
11:48 PM,32.0,18.0,56,29.62,-9999.0,SSW,10.4,-,N/A,,Unknown,210,2013-02-23 06:48:00